sensor_id;sensor_type;location;lat;lon;timestamp;temperature;humidity
21149;DHT22;10732;51.472;6.466;2022-09-29T00:00:51;5.40;99.90
21149;DHT22;10732;51.472;6.466;2022-09-29T00:03:17;5.40;99.90
21149;DHT22;10732;51.472;6.466;2022-09-29T00:05:51;5.40;99.90
21149;DHT22;10732;51.472;6.466;2022-09-29T00:08:18;5.30;99.90
21149;DHT22;10732;51.472;6.466;2022-09-29T00:10:44;5.20;99.90
21149;DHT22;10732;51.472;6.466;2022-09-29T00:13:11;5.20;99.90
21149;DHT22;10732;51.472;6.466;2022-09-29T00:15:36;5.20;99.90
21149;DHT22;10732;51.472;6.466;2022-09-29T00:18:02;5.20;99.90
21149;DHT22;10732;51.472;6.466;2022-09-29T00:20:28;5.20;99.90
21149;DHT22;10732;51.472;6.466;2022-09-29T00:22:54;5.20;99.90
21149;DHT22;10732;51.472;6.466;2022-09-29T00:25:19;5.10;99.90
21149;DHT22;10732;51.472;6.466;2022-09-29T00:27:45;5.10;99.90
21149;DHT22;10732;51.472;6.466;2022-09-29T00:30:11;5.00;99.90
21149;DHT22;10732;51.472;6.466;2022-09-29T00:32:36;5.00;99.90
21149;DHT22;10732;51.472;6.466;2022-09-29T00:35:02;5.00;99.90
21149;DHT22;10732;51.472;6.466;2022-09-29T00:37:28;4.90;99.90
21149;DHT22;10732;51.472;6.466;2022-09-29T00:39:53;4.90;99.90
21149;DHT22;10732;51.472;6.466;2022-09-29T00:42:19;4.90;99.90
21149;DHT22;10732;51.472;6.466;2022-09-29T00:45:00;4.90;99.90
21149;DHT22;10732;51.472;6.466;2022-09-29T00:47:28;4.80;99.90
21149;DHT22;10732;51.472;6.466;2022-09-29T00:50:02;4.80;99.90
21149;DHT22;10732;51.472;6.466;2022-09-29T00:52:36;4.90;99.90
21149;DHT22;10732;51.472;6.466;2022-09-29T00:55:13;4.80;99.90
21149;DHT22;10732;51.472;6.466;2022-09-29T00:57:44;4.70;99.90
21149;DHT22;10732;51.472;6.466;2022-09-29T01:00:13;4.70;99.90
21149;DHT22;10732;51.472;6.466;2022-09-29T01:02:46;4.70;99.90
21149;DHT22;10732;51.472;6.466;2022-09-29T01:05:25;4.60;99.90
21149;DHT22;10732;51.472;6.466;2022-09-29T01:07:52;4.60;99.90
21149;DHT22;10732;51.472;6.466;2022-09-29T01:10:18;4.60;99.90
21149;DHT22;10732;51.472;6.466;2022-09-29T01:12:45;4.60;99.90
21149;DHT22;10732;51.472;6.466;2022-09-29T01:15:17;4.50;99.90
21149;DHT22;10732;51.472;6.466;2022-09-29T01:17:44;4.50;99.90
21149;DHT22;10732;51.472;6.466;2022-09-29T01:20:20;4.50;99.90
21149;DHT22;10732;51.472;6.466;2022-09-29T01:28:18;4.40;99.90
21149;DHT22;10732;51.472;6.466;2022-09-29T01:30:59;4.40;99.90
21149;DHT22;10732;51.472;6.466;2022-09-29T01:33:29;4.40;99.90
21149;DHT22;10732;51.472;6.466;2022-09-29T01:36:38;4.40;99.90
21149;DHT22;10732;51.472;6.466;2022-09-29T01:39:31;4.50;99.90
21149;DHT22;10732;51.472;6.466;2022-09-29T01:42:51;4.40;99.90
21149;DHT22;10732;51.472;6.466;2022-09-29T01:50:03;4.40;99.90
21149;DHT22;10732;51.472;6.466;2022-09-29T01:52:33;4.40;99.90
21149;DHT22;10732;51.472;6.466;2022-09-29T01:55:06;4.30;99.90
21149;DHT22;10732;51.472;6.466;2022-09-29T01:57:49;4.40;99.90
21149;DHT22;10732;51.472;6.466;2022-09-29T02:00:17;4.30;99.90
21149;DHT22;10732;51.472;6.466;2022-09-29T02:03:05;4.30;99.90
21149;DHT22;10732;51.472;6.466;2022-09-29T02:05:58;4.20;99.90
21149;DHT22;10732;51.472;6.466;2022-09-29T02:08:47;4.20;99.90
21149;DHT22;10732;51.472;6.466;2022-09-29T02:11:15;4.20;99.90
21149;DHT22;10732;51.472;6.466;2022-09-29T02:14:01;4.10;99.90
21149;DHT22;10732;51.472;6.466;2022-09-29T02:16:30;4.10;99.90
21149;DHT22;10732;51.472;6.466;2022-09-29T02:19:15;4.10;99.90
21149;DHT22;10732;51.472;6.466;2022-09-29T02:21:42;4.10;99.90
21149;DHT22;10732;51.472;6.466;2022-09-29T02:24:10;4.10;99.90
21149;DHT22;10732;51.472;6.466;2022-09-29T02:26:35;4.10;99.90
21149;DHT22;10732;51.472;6.466;2022-09-29T02:29:02;4.00;99.90
21149;DHT22;10732;51.472;6.466;2022-09-29T02:31:29;4.00;99.90
21149;DHT22;10732;51.472;6.466;2022-09-29T02:33:55;4.00;99.90
21149;DHT22;10732;51.472;6.466;2022-09-29T02:40:03;4.00;99.90
21149;DHT22;10732;51.472;6.466;2022-09-29T02:45:55;3.90;99.90
21149;DHT22;10732;51.472;6.466;2022-09-29T02:48:42;3.80;99.90
21149;DHT22;10732;51.472;6.466;2022-09-29T02:56:48;3.80;99.90
21149;DHT22;10732;51.472;6.466;2022-09-29T02:59:19;3.80;99.90
21149;DHT22;10732;51.472;6.466;2022-09-29T03:01:49;3.80;99.90
21149;DHT22;10732;51.472;6.466;2022-09-29T03:04:15;3.70;99.90
21149;DHT22;10732;51.472;6.466;2022-09-29T03:06:40;3.70;99.90
21149;DHT22;10732;51.472;6.466;2022-09-29T03:09:06;3.70;99.90
21149;DHT22;10732;51.472;6.466;2022-09-29T03:11:31;3.60;99.90
21149;DHT22;10732;51.472;6.466;2022-09-29T03:13:57;3.70;99.90
21149;DHT22;10732;51.472;6.466;2022-09-29T03:16:22;3.70;99.90
21149;DHT22;10732;51.472;6.466;2022-09-29T03:18:48;3.70;99.90
21149;DHT22;10732;51.472;6.466;2022-09-29T03:21:13;3.80;99.90
21149;DHT22;10732;51.472;6.466;2022-09-29T03:23:39;3.70;99.90
21149;DHT22;10732;51.472;6.466;2022-09-29T03:26:04;3.70;99.90
21149;DHT22;10732;51.472;6.466;2022-09-29T03:28:30;3.60;99.90
21149;DHT22;10732;51.472;6.466;2022-09-29T03:30:55;3.60;99.90
21149;DHT22;10732;51.472;6.466;2022-09-29T03:33:27;3.60;99.90
21149;DHT22;10732;51.472;6.466;2022-09-29T03:35:53;3.60;99.90
21149;DHT22;10732;51.472;6.466;2022-09-29T03:38:18;3.60;99.90
21149;DHT22;10732;51.472;6.466;2022-09-29T03:40:44;3.60;99.90
21149;DHT22;10732;51.472;6.466;2022-09-29T03:43:09;3.60;99.90
21149;DHT22;10732;51.472;6.466;2022-09-29T03:45:35;3.50;99.90
21149;DHT22;10732;51.472;6.466;2022-09-29T03:48:00;3.50;99.90
21149;DHT22;10732;51.472;6.466;2022-09-29T03:50:26;3.50;99.90
21149;DHT22;10732;51.472;6.466;2022-09-29T03:52:51;3.50;99.90
21149;DHT22;10732;51.472;6.466;2022-09-29T03:55:17;3.50;99.90
21149;DHT22;10732;51.472;6.466;2022-09-29T03:57:42;3.40;99.90
21149;DHT22;10732;51.472;6.466;2022-09-29T04:00:09;3.40;99.90
21149;DHT22;10732;51.472;6.466;2022-09-29T04:02:34;3.40;99.90
21149;DHT22;10732;51.472;6.466;2022-09-29T04:05:00;3.40;99.90
21149;DHT22;10732;51.472;6.466;2022-09-29T04:07:26;3.40;99.90
21149;DHT22;10732;51.472;6.466;2022-09-29T04:09:51;3.40;99.90
21149;DHT22;10732;51.472;6.466;2022-09-29T04:12:17;3.40;99.90
21149;DHT22;10732;51.472;6.466;2022-09-29T04:14:42;3.40;99.90
21149;DHT22;10732;51.472;6.466;2022-09-29T04:17:08;3.40;99.90
21149;DHT22;10732;51.472;6.466;2022-09-29T04:19:33;3.40;99.90
21149;DHT22;10732;51.472;6.466;2022-09-29T04:22:00;3.40;99.90
21149;DHT22;10732;51.472;6.466;2022-09-29T04:24:25;3.40;99.90
21149;DHT22;10732;51.472;6.466;2022-09-29T04:26:51;3.40;99.90
21149;DHT22;10732;51.472;6.466;2022-09-29T04:29:17;3.30;99.90
21149;DHT22;10732;51.472;6.466;2022-09-29T04:31:42;3.30;99.90
21149;DHT22;10732;51.472;6.466;2022-09-29T04:34:08;3.30;99.90
21149;DHT22;10732;51.472;6.466;2022-09-29T04:36:33;3.30;99.90
21149;DHT22;10732;51.472;6.466;2022-09-29T04:38:59;3.20;99.90
21149;DHT22;10732;51.472;6.466;2022-09-29T04:41:25;3.20;99.90
21149;DHT22;10732;51.472;6.466;2022-09-29T04:43:50;3.20;99.90
21149;DHT22;10732;51.472;6.466;2022-09-29T04:46:16;3.20;99.90
21149;DHT22;10732;51.472;6.466;2022-09-29T04:48:41;3.20;99.90
21149;DHT22;10732;51.472;6.466;2022-09-29T04:51:08;3.20;99.90
21149;DHT22;10732;51.472;6.466;2022-09-29T04:53:35;3.10;99.90
21149;DHT22;10732;51.472;6.466;2022-09-29T04:56:04;3.10;99.90
21149;DHT22;10732;51.472;6.466;2022-09-29T04:58:30;3.10;99.90
21149;DHT22;10732;51.472;6.466;2022-09-29T05:01:07;3.10;99.90
21149;DHT22;10732;51.472;6.466;2022-09-29T05:03:33;3.00;99.90
21149;DHT22;10732;51.472;6.466;2022-09-29T05:05:59;3.10;99.90
21149;DHT22;10732;51.472;6.466;2022-09-29T05:08:24;3.10;99.90
21149;DHT22;10732;51.472;6.466;2022-09-29T05:10:50;3.20;99.90
21149;DHT22;10732;51.472;6.466;2022-09-29T05:13:16;3.10;99.90
21149;DHT22;10732;51.472;6.466;2022-09-29T05:15:41;3.10;99.90
21149;DHT22;10732;51.472;6.466;2022-09-29T05:18:07;3.20;99.90
21149;DHT22;10732;51.472;6.466;2022-09-29T05:20:32;3.20;99.90
21149;DHT22;10732;51.472;6.466;2022-09-29T05:22:58;3.20;99.90
21149;DHT22;10732;51.472;6.466;2022-09-29T05:25:25;3.20;99.90
21149;DHT22;10732;51.472;6.466;2022-09-29T05:27:52;3.20;99.90
21149;DHT22;10732;51.472;6.466;2022-09-29T05:30:17;3.30;99.90
21149;DHT22;10732;51.472;6.466;2022-09-29T05:32:43;3.30;99.90
21149;DHT22;10732;51.472;6.466;2022-09-29T05:35:09;3.30;99.90
21149;DHT22;10732;51.472;6.466;2022-09-29T05:37:34;3.30;99.90
21149;DHT22;10732;51.472;6.466;2022-09-29T05:40:00;3.30;99.90
21149;DHT22;10732;51.472;6.466;2022-09-29T05:42:25;3.30;99.90
21149;DHT22;10732;51.472;6.466;2022-09-29T05:44:52;3.30;99.90
21149;DHT22;10732;51.472;6.466;2022-09-29T05:47:17;3.40;99.90
21149;DHT22;10732;51.472;6.466;2022-09-29T05:49:43;3.40;99.90
21149;DHT22;10732;51.472;6.466;2022-09-29T05:52:09;3.40;99.90
21149;DHT22;10732;51.472;6.466;2022-09-29T05:54:35;3.50;99.90
21149;DHT22;10732;51.472;6.466;2022-09-29T05:57:00;3.60;99.90
21149;DHT22;10732;51.472;6.466;2022-09-29T05:59:26;3.60;99.90
21149;DHT22;10732;51.472;6.466;2022-09-29T06:01:52;3.70;99.90
21149;DHT22;10732;51.472;6.466;2022-09-29T06:04:17;3.80;99.90
21149;DHT22;10732;51.472;6.466;2022-09-29T06:06:43;3.90;99.90
21149;DHT22;10732;51.472;6.466;2022-09-29T06:09:09;3.90;99.90
21149;DHT22;10732;51.472;6.466;2022-09-29T06:11:34;4.00;99.90
21149;DHT22;10732;51.472;6.466;2022-09-29T06:14:01;4.00;99.90
21149;DHT22;10732;51.472;6.466;2022-09-29T06:16:28;4.10;99.90
21149;DHT22;10732;51.472;6.466;2022-09-29T06:18:55;4.20;99.90
21149;DHT22;10732;51.472;6.466;2022-09-29T06:21:23;4.30;99.90
21149;DHT22;10732;51.472;6.466;2022-09-29T06:23:50;4.40;99.90
21149;DHT22;10732;51.472;6.466;2022-09-29T06:26:18;4.50;99.90
21149;DHT22;10732;51.472;6.466;2022-09-29T06:29:03;4.60;99.90
21149;DHT22;10732;51.472;6.466;2022-09-29T06:31:29;4.80;99.90
21149;DHT22;10732;51.472;6.466;2022-09-29T06:34:00;4.90;99.90
21149;DHT22;10732;51.472;6.466;2022-09-29T06:36:43;5.10;99.90
21149;DHT22;10732;51.472;6.466;2022-09-29T06:39:28;5.30;99.90
21149;DHT22;10732;51.472;6.466;2022-09-29T06:41:54;5.40;99.90
21149;DHT22;10732;51.472;6.466;2022-09-29T06:44:25;5.50;99.90
21149;DHT22;10732;51.472;6.466;2022-09-29T06:46:52;5.60;99.90
21149;DHT22;10732;51.472;6.466;2022-09-29T06:49:19;5.70;99.90
21149;DHT22;10732;51.472;6.466;2022-09-29T06:51:45;5.80;99.90
21149;DHT22;10732;51.472;6.466;2022-09-29T06:54:12;6.00;99.90
21149;DHT22;10732;51.472;6.466;2022-09-29T06:56:38;6.10;99.90
21149;DHT22;10732;51.472;6.466;2022-09-29T06:59:03;6.30;99.90
21149;DHT22;10732;51.472;6.466;2022-09-29T07:01:29;6.50;99.90
21149;DHT22;10732;51.472;6.466;2022-09-29T07:03:55;6.60;99.90
21149;DHT22;10732;51.472;6.466;2022-09-29T07:06:21;6.70;99.90
21149;DHT22;10732;51.472;6.466;2022-09-29T07:08:46;6.80;99.90
21149;DHT22;10732;51.472;6.466;2022-09-29T07:11:12;7.00;99.90
21149;DHT22;10732;51.472;6.466;2022-09-29T07:13:38;7.20;99.90
21149;DHT22;10732;51.472;6.466;2022-09-29T07:16:12;7.40;99.90
21149;DHT22;10732;51.472;6.466;2022-09-29T07:18:39;7.40;99.90
21149;DHT22;10732;51.472;6.466;2022-09-29T07:21:08;8.40;99.90
21149;DHT22;10732;51.472;6.466;2022-09-29T07:23:37;10.00;99.90
21149;DHT22;10732;51.472;6.466;2022-09-29T07:26:05;11.70;99.90
21149;DHT22;10732;51.472;6.466;2022-09-29T07:28:31;12.10;99.90
21149;DHT22;10732;51.472;6.466;2022-09-29T07:31:01;12.50;99.90
21149;DHT22;10732;51.472;6.466;2022-09-29T07:33:27;12.50;99.90
21149;DHT22;10732;51.472;6.466;2022-09-29T07:35:53;13.20;99.90
21149;DHT22;10732;51.472;6.466;2022-09-29T07:38:19;14.00;99.90
21149;DHT22;10732;51.472;6.466;2022-09-29T07:40:45;14.80;99.90
21149;DHT22;10732;51.472;6.466;2022-09-29T07:43:10;16.30;1.00
21149;DHT22;10732;51.472;6.466;2022-09-29T07:45:36;16.00;1.00
21149;DHT22;10732;51.472;6.466;2022-09-29T07:48:01;15.80;1.00
21149;DHT22;10732;51.472;6.466;2022-09-29T07:50:27;14.90;1.00
21149;DHT22;10732;51.472;6.466;2022-09-29T07:52:52;14.30;1.00
21149;DHT22;10732;51.472;6.466;2022-09-29T07:55:18;14.30;1.00
21149;DHT22;10732;51.472;6.466;2022-09-29T07:57:46;15.40;1.00
21149;DHT22;10732;51.472;6.466;2022-09-29T08:00:13;14.70;1.00
21149;DHT22;10732;51.472;6.466;2022-09-29T08:02:38;14.50;1.00
21149;DHT22;10732;51.472;6.466;2022-09-29T08:05:04;14.70;1.00
21149;DHT22;10732;51.472;6.466;2022-09-29T08:07:30;15.00;1.00
21149;DHT22;10732;51.472;6.466;2022-09-29T08:09:55;16.20;1.00
21149;DHT22;10732;51.472;6.466;2022-09-29T08:12:21;16.60;1.00
21149;DHT22;10732;51.472;6.466;2022-09-29T08:14:47;16.80;1.00
21149;DHT22;10732;51.472;6.466;2022-09-29T08:17:13;16.10;1.00
21149;DHT22;10732;51.472;6.466;2022-09-29T08:19:39;16.60;1.00
21149;DHT22;10732;51.472;6.466;2022-09-29T08:22:05;17.10;1.00
21149;DHT22;10732;51.472;6.466;2022-09-29T08:24:30;16.80;1.00
21149;DHT22;10732;51.472;6.466;2022-09-29T08:26:56;16.90;1.00
21149;DHT22;10732;51.472;6.466;2022-09-29T08:29:22;18.60;1.00
21149;DHT22;10732;51.472;6.466;2022-09-29T08:31:47;19.00;1.00
21149;DHT22;10732;51.472;6.466;2022-09-29T08:34:13;19.20;1.00
21149;DHT22;10732;51.472;6.466;2022-09-29T08:36:39;18.60;1.00
21149;DHT22;10732;51.472;6.466;2022-09-29T08:39:05;18.80;93.90
21149;DHT22;10732;51.472;6.466;2022-09-29T08:42:01;19.30;1.00
21149;DHT22;10732;51.472;6.466;2022-09-29T08:45:00;19.20;99.90
21149;DHT22;10732;51.472;6.466;2022-09-29T08:47:33;20.40;1.00
21149;DHT22;10732;51.472;6.466;2022-09-29T08:50:03;20.20;99.90
21149;DHT22;10732;51.472;6.466;2022-09-29T08:52:38;20.00;1.00
21149;DHT22;10732;51.472;6.466;2022-09-29T08:55:29;19.40;99.90
21149;DHT22;10732;51.472;6.466;2022-09-29T08:57:58;19.10;1.00
21149;DHT22;10732;51.472;6.466;2022-09-29T09:00:34;19.70;1.00
21149;DHT22;10732;51.472;6.466;2022-09-29T09:03:12;19.50;1.00
21149;DHT22;10732;51.472;6.466;2022-09-29T09:08:52;18.90;99.90
21149;DHT22;10732;51.472;6.466;2022-09-29T09:22:34;20.30;99.90
21149;DHT22;10732;51.472;6.466;2022-09-29T09:25:16;18.80;99.90
21149;DHT22;10732;51.472;6.466;2022-09-29T09:27:47;18.80;99.90
21149;DHT22;10732;51.472;6.466;2022-09-29T09:30:17;18.70;99.90
21149;DHT22;10732;51.472;6.466;2022-09-29T09:32:55;19.20;99.90
21149;DHT22;10732;51.472;6.466;2022-09-29T09:35:24;20.40;99.90
21149;DHT22;10732;51.472;6.466;2022-09-29T09:37:53;19.30;99.90
21149;DHT22;10732;51.472;6.466;2022-09-29T09:43:13;20.90;99.90
21149;DHT22;10732;51.472;6.466;2022-09-29T09:45:50;20.00;99.90
21149;DHT22;10732;51.472;6.466;2022-09-29T09:51:28;20.80;99.90
21149;DHT22;10732;51.472;6.466;2022-09-29T09:53:58;21.50;99.90
21149;DHT22;10732;51.472;6.466;2022-09-29T09:57:02;20.70;99.90
21149;DHT22;10732;51.472;6.466;2022-09-29T09:59:43;19.70;99.90
21149;DHT22;10732;51.472;6.466;2022-09-29T10:02:16;19.40;99.90
21149;DHT22;10732;51.472;6.466;2022-09-29T10:04:43;20.00;99.90
21149;DHT22;10732;51.472;6.466;2022-09-29T10:07:10;22.40;99.90
21149;DHT22;10732;51.472;6.466;2022-09-29T10:09:36;21.60;99.90
21149;DHT22;10732;51.472;6.466;2022-09-29T10:12:01;22.00;99.90
21149;DHT22;10732;51.472;6.466;2022-09-29T10:14:27;21.80;99.90
21149;DHT22;10732;51.472;6.466;2022-09-29T10:17:05;21.90;99.90
21149;DHT22;10732;51.472;6.466;2022-09-29T10:20:00;21.80;99.90
21149;DHT22;10732;51.472;6.466;2022-09-29T10:22:27;21.00;99.90
21149;DHT22;10732;51.472;6.466;2022-09-29T10:25:14;20.50;99.90
21149;DHT22;10732;51.472;6.466;2022-09-29T10:27:45;20.40;99.90
21149;DHT22;10732;51.472;6.466;2022-09-29T10:30:37;20.50;99.90
21149;DHT22;10732;51.472;6.466;2022-09-29T10:33:04;21.70;99.90
21149;DHT22;10732;51.472;6.466;2022-09-29T10:35:37;21.30;99.90
21149;DHT22;10732;51.472;6.466;2022-09-29T10:38:23;21.50;99.90
21149;DHT22;10732;51.472;6.466;2022-09-29T10:40:57;22.80;99.90
21149;DHT22;10732;51.472;6.466;2022-09-29T10:43:26;21.10;99.90
21149;DHT22;10732;51.472;6.466;2022-09-29T10:45:55;21.70;99.90
21149;DHT22;10732;51.472;6.466;2022-09-29T10:48:24;21.10;99.90
21149;DHT22;10732;51.472;6.466;2022-09-29T10:50:54;20.50;99.90
21149;DHT22;10732;51.472;6.466;2022-09-29T10:55:58;20.50;99.90
21149;DHT22;10732;51.472;6.466;2022-09-29T10:58:35;20.50;99.90
21149;DHT22;10732;51.472;6.466;2022-09-29T11:01:08;21.20;99.90
21149;DHT22;10732;51.472;6.466;2022-09-29T11:03:37;20.70;99.90
21149;DHT22;10732;51.472;6.466;2022-09-29T11:06:11;20.80;99.90
21149;DHT22;10732;51.472;6.466;2022-09-29T11:08:57;21.00;99.90
21149;DHT22;10732;51.472;6.466;2022-09-29T11:13:53;20.80;99.90
21149;DHT22;10732;51.472;6.466;2022-09-29T11:16:32;20.80;99.90
21149;DHT22;10732;51.472;6.466;2022-09-29T11:19:03;21.00;99.90
21149;DHT22;10732;51.472;6.466;2022-09-29T11:24:04;20.70;99.90
21149;DHT22;10732;51.472;6.466;2022-09-29T11:26:46;21.30;99.90
21149;DHT22;10732;51.472;6.466;2022-09-29T11:35:17;20.10;99.90
21149;DHT22;10732;51.472;6.466;2022-09-29T11:45:59;19.20;99.90
21149;DHT22;10732;51.472;6.466;2022-09-29T11:54:18;18.40;99.90
21149;DHT22;10732;51.472;6.466;2022-09-29T12:13:19;18.50;99.90
21149;DHT22;10732;51.472;6.466;2022-09-29T12:15:59;18.50;99.90
21149;DHT22;10732;51.472;6.466;2022-09-29T12:18:47;18.10;99.90
21149;DHT22;10732;51.472;6.466;2022-09-29T12:21:16;17.60;99.90
21149;DHT22;10732;51.472;6.466;2022-09-29T12:23:46;17.20;99.90
21149;DHT22;10732;51.472;6.466;2022-09-29T12:26:21;17.10;99.90
21149;DHT22;10732;51.472;6.466;2022-09-29T12:28:57;16.90;99.90
21149;DHT22;10732;51.472;6.466;2022-09-29T12:31:29;16.40;99.90
21149;DHT22;10732;51.472;6.466;2022-09-29T12:34:17;16.30;99.90
21149;DHT22;10732;51.472;6.466;2022-09-29T12:56:02;17.00;99.90
21149;DHT22;10732;51.472;6.466;2022-09-29T13:01:35;16.80;99.90
21149;DHT22;10732;51.472;6.466;2022-09-29T13:07:02;16.60;99.90
21149;DHT22;10732;51.472;6.466;2022-09-29T13:09:50;16.40;99.90
21149;DHT22;10732;51.472;6.466;2022-09-29T13:12:26;16.40;99.90
21149;DHT22;10732;51.472;6.466;2022-09-29T13:28:52;15.90;99.90
21149;DHT22;10732;51.472;6.466;2022-09-29T13:31:22;15.90;99.90
21149;DHT22;10732;51.472;6.466;2022-09-29T13:33:53;15.80;99.90
21149;DHT22;10732;51.472;6.466;2022-09-29T13:36:31;15.70;99.90
21149;DHT22;10732;51.472;6.466;2022-09-29T13:39:04;15.70;99.90
21149;DHT22;10732;51.472;6.466;2022-09-29T13:48:52;15.80;99.90
21149;DHT22;10732;51.472;6.466;2022-09-29T13:51:25;15.70;99.90
21149;DHT22;10732;51.472;6.466;2022-09-29T14:04:52;15.70;99.90
21149;DHT22;10732;51.472;6.466;2022-09-29T14:10:37;15.50;99.90
21149;DHT22;10732;51.472;6.466;2022-09-29T14:13:14;15.50;99.90
21149;DHT22;10732;51.472;6.466;2022-09-29T14:15:45;15.50;99.90
21149;DHT22;10732;51.472;6.466;2022-09-29T14:18:25;15.60;99.90
21149;DHT22;10732;51.472;6.466;2022-09-29T14:21:01;15.60;99.90
21149;DHT22;10732;51.472;6.466;2022-09-29T14:23:48;15.60;99.90
21149;DHT22;10732;51.472;6.466;2022-09-29T14:26:50;15.60;99.90
21149;DHT22;10732;51.472;6.466;2022-09-29T14:29:30;15.70;99.90
21149;DHT22;10732;51.472;6.466;2022-09-29T14:31:58;15.50;99.90
21149;DHT22;10732;51.472;6.466;2022-09-29T14:34:27;15.70;99.90
21149;DHT22;10732;51.472;6.466;2022-09-29T14:36:55;15.70;99.90
21149;DHT22;10732;51.472;6.466;2022-09-29T14:39:23;15.90;99.90
21149;DHT22;10732;51.472;6.466;2022-09-29T14:41:49;16.00;99.90
21149;DHT22;10732;51.472;6.466;2022-09-29T14:44:31;15.90;99.90
21149;DHT22;10732;51.472;6.466;2022-09-29T14:53:18;15.90;99.90
21149;DHT22;10732;51.472;6.466;2022-09-29T14:59:10;15.50;99.90
21149;DHT22;10732;51.472;6.466;2022-09-29T15:02:12;15.40;99.90
21149;DHT22;10732;51.472;6.466;2022-09-29T15:04:41;15.30;99.90
21149;DHT22;10732;51.472;6.466;2022-09-29T15:07:12;15.30;99.90
21149;DHT22;10732;51.472;6.466;2022-09-29T15:09:38;15.30;99.90
21149;DHT22;10732;51.472;6.466;2022-09-29T15:12:19;15.20;99.90
21149;DHT22;10732;51.472;6.466;2022-09-29T15:14:45;15.20;99.90
21149;DHT22;10732;51.472;6.466;2022-09-29T15:20:22;15.20;99.90
21149;DHT22;10732;51.472;6.466;2022-09-29T15:23:07;15.10;99.90
21149;DHT22;10732;51.472;6.466;2022-09-29T15:25:45;15.10;99.90
21149;DHT22;10732;51.472;6.466;2022-09-29T15:28:15;15.00;99.90
21149;DHT22;10732;51.472;6.466;2022-09-29T15:30:42;15.10;99.90
21149;DHT22;10732;51.472;6.466;2022-09-29T15:33:20;15.10;99.90
21149;DHT22;10732;51.472;6.466;2022-09-29T15:35:56;15.10;99.90
21149;DHT22;10732;51.472;6.466;2022-09-29T15:40:56;15.10;99.90
21149;DHT22;10732;51.472;6.466;2022-09-29T15:43:38;15.10;99.90
21149;DHT22;10732;51.472;6.466;2022-09-29T15:46:17;14.90;99.90
21149;DHT22;10732;51.472;6.466;2022-09-29T15:49:13;15.10;99.90
21149;DHT22;10732;51.472;6.466;2022-09-29T15:51:45;15.10;99.90
21149;DHT22;10732;51.472;6.466;2022-09-29T15:54:18;15.20;99.90
21149;DHT22;10732;51.472;6.466;2022-09-29T15:56:45;15.10;99.90
21149;DHT22;10732;51.472;6.466;2022-09-29T15:59:47;15.00;99.90
21149;DHT22;10732;51.472;6.466;2022-09-29T16:02:38;14.80;99.90
21149;DHT22;10732;51.472;6.466;2022-09-29T16:05:14;14.80;99.90
21149;DHT22;10732;51.472;6.466;2022-09-29T16:10:33;14.70;99.90
21149;DHT22;10732;51.472;6.466;2022-09-29T16:13:07;14.60;99.90
21149;DHT22;10732;51.472;6.466;2022-09-29T16:15:45;14.60;99.90
21149;DHT22;10732;51.472;6.466;2022-09-29T16:18:21;14.50;99.90
21149;DHT22;10732;51.472;6.466;2022-09-29T16:20:48;14.40;99.90
21149;DHT22;10732;51.472;6.466;2022-09-29T16:26:11;14.30;99.90
21149;DHT22;10732;51.472;6.466;2022-09-29T16:28:57;14.10;99.90
21149;DHT22;10732;51.472;6.466;2022-09-29T16:31:22;14.00;99.90
21149;DHT22;10732;51.472;6.466;2022-09-29T16:33:53;14.00;99.90
21149;DHT22;10732;51.472;6.466;2022-09-29T16:36:21;13.80;99.90
21149;DHT22;10732;51.472;6.466;2022-09-29T16:38:49;13.70;99.90
21149;DHT22;10732;51.472;6.466;2022-09-29T16:41:29;13.60;99.90
21149;DHT22;10732;51.472;6.466;2022-09-29T16:44:15;13.40;99.90
21149;DHT22;10732;51.472;6.466;2022-09-29T16:51:55;13.10;99.90
21149;DHT22;10732;51.472;6.466;2022-09-29T16:54:28;12.90;99.90
21149;DHT22;10732;51.472;6.466;2022-09-29T16:57:15;12.70;99.90
21149;DHT22;10732;51.472;6.466;2022-09-29T16:59:43;12.60;99.90
21149;DHT22;10732;51.472;6.466;2022-09-29T17:02:09;12.50;99.90
21149;DHT22;10732;51.472;6.466;2022-09-29T17:04:34;12.40;99.90
21149;DHT22;10732;51.472;6.466;2022-09-29T17:07:00;12.30;99.90
21149;DHT22;10732;51.472;6.466;2022-09-29T17:09:27;12.10;99.90
21149;DHT22;10732;51.472;6.466;2022-09-29T17:11:53;12.10;99.90
21149;DHT22;10732;51.472;6.466;2022-09-29T17:14:18;12.00;99.90
21149;DHT22;10732;51.472;6.466;2022-09-29T17:16:46;11.80;99.90
21149;DHT22;10732;51.472;6.466;2022-09-29T17:19:13;11.70;99.90
21149;DHT22;10732;51.472;6.466;2022-09-29T17:21:39;11.60;99.90
21149;DHT22;10732;51.472;6.466;2022-09-29T17:24:05;11.50;99.90
21149;DHT22;10732;51.472;6.466;2022-09-29T17:26:43;11.30;99.90
21149;DHT22;10732;51.472;6.466;2022-09-29T17:29:28;11.20;99.90
21149;DHT22;10732;51.472;6.466;2022-09-29T17:31:53;11.10;99.90
21149;DHT22;10732;51.472;6.466;2022-09-29T17:34:19;11.10;99.90
21149;DHT22;10732;51.472;6.466;2022-09-29T17:36:46;11.00;99.90
21149;DHT22;10732;51.472;6.466;2022-09-29T17:39:12;11.00;99.90
21149;DHT22;10732;51.472;6.466;2022-09-29T17:41:37;10.90;99.90
21149;DHT22;10732;51.472;6.466;2022-09-29T17:44:04;10.80;99.90
21149;DHT22;10732;51.472;6.466;2022-09-29T17:46:30;10.70;99.90
21149;DHT22;10732;51.472;6.466;2022-09-29T17:48:56;10.70;99.90
21149;DHT22;10732;51.472;6.466;2022-09-29T17:51:21;10.70;99.90
21149;DHT22;10732;51.472;6.466;2022-09-29T17:53:47;10.70;99.90
21149;DHT22;10732;51.472;6.466;2022-09-29T17:56:21;10.60;99.90
21149;DHT22;10732;51.472;6.466;2022-09-29T17:58:50;10.50;99.90
21149;DHT22;10732;51.472;6.466;2022-09-29T18:01:19;10.40;99.90
21149;DHT22;10732;51.472;6.466;2022-09-29T18:03:46;10.40;99.90
21149;DHT22;10732;51.472;6.466;2022-09-29T18:06:20;10.30;99.90
21149;DHT22;10732;51.472;6.466;2022-09-29T18:08:47;10.20;99.90
21149;DHT22;10732;51.472;6.466;2022-09-29T18:11:16;10.20;99.90
21149;DHT22;10732;51.472;6.466;2022-09-29T18:13:41;10.20;99.90
21149;DHT22;10732;51.472;6.466;2022-09-29T18:16:10;10.10;99.90
21149;DHT22;10732;51.472;6.466;2022-09-29T18:18:37;10.00;99.90
21149;DHT22;10732;51.472;6.466;2022-09-29T18:21:02;10.00;99.90
21149;DHT22;10732;51.472;6.466;2022-09-29T18:23:30;10.00;99.90
21149;DHT22;10732;51.472;6.466;2022-09-29T18:25:56;9.90;99.90
21149;DHT22;10732;51.472;6.466;2022-09-29T18:28:22;9.90;99.90
21149;DHT22;10732;51.472;6.466;2022-09-29T18:33:33;9.90;99.90
21149;DHT22;10732;51.472;6.466;2022-09-29T18:35:59;9.80;99.90
21149;DHT22;10732;51.472;6.466;2022-09-29T18:38:26;9.80;99.90
21149;DHT22;10732;51.472;6.466;2022-09-29T18:40:52;9.70;99.90
21149;DHT22;10732;51.472;6.466;2022-09-29T18:43:18;9.70;99.90
21149;DHT22;10732;51.472;6.466;2022-09-29T18:45:46;9.60;99.90
21149;DHT22;10732;51.472;6.466;2022-09-29T18:48:13;9.60;99.90
21149;DHT22;10732;51.472;6.466;2022-09-29T18:50:41;9.50;99.90
21149;DHT22;10732;51.472;6.466;2022-09-29T18:53:12;9.50;99.90
21149;DHT22;10732;51.472;6.466;2022-09-29T18:55:38;9.40;99.90
21149;DHT22;10732;51.472;6.466;2022-09-29T18:58:06;9.40;99.90